createdAt,value
2017-12-27T00:02:00.305Z,21.83
2017-12-27T00:04:34.321Z,10.10
2017-12-27T00:07:08.195Z,13.30
2017-12-27T00:09:42.091Z,18.87
2017-12-27T00:12:15.988Z,10.75
2017-12-27T00:14:49.947Z,15.57
2017-12-27T00:17:23.807Z,7.15
2017-12-27T00:20:12.456Z,13.60
2017-12-27T00:22:46.426Z,14.63
2017-12-27T00:25:20.415Z,7.95
2017-12-27T00:27:54.339Z,12.65
2017-12-27T00:30:28.236Z,9.73
2017-12-27T00:32:56.104Z,10.85
2017-12-27T00:35:23.943Z,21.90
2017-12-27T00:37:51.807Z,14.35
2017-12-27T00:40:19.671Z,10.38
2017-12-27T00:42:47.523Z,14.57
2017-12-27T00:45:15.388Z,10.73
2017-12-27T00:47:43.259Z,6.00
2017-12-27T00:50:11.124Z,16.12
2017-12-27T00:52:38.991Z,6.20
2017-12-27T00:55:06.860Z,12.88
2017-12-27T00:57:34.720Z,11.43
2017-12-27T01:00:02.601Z,12.40
2017-12-27T01:02:30.460Z,6.32
2017-12-27T01:04:58.347Z,10.40
2017-12-27T01:07:26.213Z,5.93
2017-12-27T01:09:54.080Z,10.32
2017-12-27T01:12:21.941Z,12.37
2017-12-27T01:14:49.821Z,8.82
2017-12-27T01:17:17.691Z,10.90
2017-12-27T01:19:45.540Z,8.63
2017-12-27T01:22:13.412Z,8.90
2017-12-27T01:24:41.245Z,9.68
2017-12-27T01:27:09.142Z,15.18
2017-12-27T01:29:37.000Z,6.15
2017-12-27T01:32:04.874Z,7.03
2017-12-27T01:34:32.741Z,9.25
2017-12-27T01:37:00.620Z,6.32
2017-12-27T01:39:28.475Z,11.88
2017-12-27T01:41:56.350Z,9.48
2017-12-27T01:44:24.190Z,7.80
2017-12-27T01:46:53.925Z,8.77
2017-12-27T01:49:21.792Z,7.28
2017-12-27T01:51:49.662Z,8.00
2017-12-27T01:54:17.552Z,8.45
2017-12-27T01:56:45.469Z,5.95
2017-12-27T01:59:13.321Z,8.52
2017-12-27T02:01:41.212Z,7.78
2017-12-27T02:04:09.056Z,7.35
2017-12-27T02:06:36.903Z,9.52
2017-12-27T02:09:04.787Z,5.55
2017-12-27T02:11:32.657Z,9.85
2017-12-27T02:14:00.533Z,12.20
2017-12-27T02:16:28.395Z,7.72
2017-12-27T02:18:56.291Z,7.47
2017-12-27T02:21:24.152Z,10.30
2017-12-27T02:23:52.018Z,7.20
2017-12-27T02:26:19.864Z,12.52
2017-12-27T02:28:47.728Z,12.27
2017-12-27T02:31:15.577Z,9.90
2017-12-27T02:33:43.460Z,6.07
2017-12-27T02:36:11.330Z,6.25
2017-12-27T02:38:45.194Z,6.70
2017-12-27T02:41:13.018Z,4.25
2017-12-27T02:43:40.906Z,6.20
2017-12-27T02:46:08.760Z,10.93
2017-12-27T02:48:36.615Z,4.57
2017-12-27T02:51:04.468Z,9.10
2017-12-27T02:53:32.310Z,6.28
2017-12-27T02:56:00.173Z,6.62
2017-12-27T02:58:28.035Z,8.35
2017-12-27T03:00:55.860Z,13.18
2017-12-27T03:03:23.714Z,9.00
2017-12-27T03:05:51.584Z,9.07
2017-12-27T03:08:19.412Z,5.37
2017-12-27T03:10:47.309Z,6.12
2017-12-27T03:13:15.175Z,6.70
2017-12-27T03:15:43.047Z,7.22
2017-12-27T03:18:10.904Z,12.15
2017-12-27T03:20:38.781Z,6.72
2017-12-27T03:23:06.655Z,9.25
2017-12-27T03:25:34.510Z,3.70
2017-12-27T03:28:02.328Z,7.78
2017-12-27T03:30:30.170Z,8.55
2017-12-27T03:32:58.006Z,13.13
2017-12-27T03:35:25.868Z,9.38
2017-12-27T03:37:53.713Z,5.78
2017-12-27T03:40:21.580Z,4.60
2017-12-27T03:42:49.467Z,8.85
2017-12-27T03:45:17.331Z,3.55
2017-12-27T03:47:45.198Z,6.50
2017-12-27T03:50:13.040Z,6.15
2017-12-27T03:52:40.908Z,8.18
2017-12-27T03:55:08.765Z,6.85
2017-12-27T03:57:36.645Z,4.25
2017-12-27T04:00:04.496Z,8.90
2017-12-27T04:02:32.397Z,3.50
2017-12-27T04:05:00.239Z,5.45
2017-12-27T04:07:28.096Z,8.25
2017-12-27T04:09:55.935Z,5.62
2017-12-27T04:12:23.799Z,3.37
2017-12-27T04:14:51.688Z,4.72
2017-12-27T04:17:19.546Z,7.60
2017-12-27T04:19:47.403Z,15.57
2017-12-27T04:22:15.295Z,7.55
2017-12-27T04:24:43.146Z,4.47
2017-12-27T04:27:11.007Z,10.82
2017-12-27T04:29:38.876Z,10.68
2017-12-27T04:32:06.752Z,6.55
2017-12-27T04:34:34.582Z,8.85
2017-12-27T04:37:02.412Z,7.87
2017-12-27T04:39:30.282Z,10.35
2017-12-27T04:41:59.167Z,4.72
2017-12-27T04:44:27.447Z,13.70
2017-12-27T04:46:55.277Z,6.60
2017-12-27T04:49:23.118Z,5.28
2017-12-27T04:51:51.727Z,4.62
2017-12-27T04:54:19.552Z,9.43
2017-12-27T04:56:49.108Z,6.87
2017-12-27T04:59:16.960Z,4.10
2017-12-27T05:01:44.827Z,9.73
2017-12-27T05:04:12.696Z,7.20
2017-12-27T05:06:40.548Z,4.40
2017-12-27T05:09:08.379Z,7.15
2017-12-27T05:11:36.229Z,10.77
2017-12-27T05:14:04.086Z,6.90
2017-12-27T05:16:31.984Z,7.07
2017-12-27T05:18:59.843Z,5.20
2017-12-27T05:21:27.655Z,5.65
2017-12-27T05:23:55.519Z,6.65
2017-12-27T05:26:23.369Z,10.23
2017-12-27T05:28:51.253Z,10.15
2017-12-27T05:31:19.195Z,4.18
2017-12-27T05:33:47.115Z,12.40
2017-12-27T05:36:14.959Z,16.55
2017-12-27T05:38:42.823Z,7.00
2017-12-27T05:41:10.670Z,11.85
2017-12-27T05:43:38.560Z,4.57
2017-12-27T05:46:06.410Z,6.45
2017-12-27T05:48:34.215Z,9.70
2017-12-27T05:51:02.073Z,6.30
2017-12-27T05:53:29.911Z,3.50
2017-12-27T05:55:57.756Z,7.68
2017-12-27T05:58:25.603Z,11.63
2017-12-27T06:00:53.460Z,10.40
2017-12-27T06:03:21.296Z,13.07
2017-12-27T06:05:49.165Z,12.75
2017-12-27T06:08:16.997Z,11.12
2017-12-27T06:10:44.901Z,14.25
2017-12-27T06:13:12.721Z,10.02
2017-12-27T06:15:40.553Z,5.90
2017-12-27T06:18:08.375Z,8.50
2017-12-27T06:20:36.192Z,5.20
2017-12-27T06:23:04.048Z,16.80
2017-12-27T06:25:31.908Z,6.50
2017-12-27T06:27:59.771Z,7.93
2017-12-27T06:30:27.628Z,10.98
2017-12-27T06:32:55.491Z,5.87
2017-12-27T06:35:23.351Z,10.30
2017-12-27T06:37:51.180Z,8.02
2017-12-27T06:40:18.996Z,9.82
2017-12-27T06:42:46.869Z,6.82
2017-12-27T06:45:14.744Z,8.27
2017-12-27T06:47:42.585Z,6.65
2017-12-27T06:50:10.413Z,10.38
2017-12-27T06:52:38.256Z,6.18
2017-12-27T06:55:06.104Z,5.03
2017-12-27T06:57:33.970Z,8.80
2017-12-27T07:00:01.807Z,6.90
2017-12-27T07:02:29.672Z,6.22
2017-12-27T07:04:57.501Z,4.15
2017-12-27T07:07:25.352Z,4.22
2017-12-27T07:09:53.199Z,8.93
2017-12-27T07:12:21.036Z,8.30
2017-12-27T07:14:48.867Z,4.68
2017-12-27T07:17:16.700Z,5.55
2017-12-27T07:19:44.567Z,3.40
2017-12-27T07:22:12.395Z,7.68
2017-12-27T07:24:40.217Z,10.10
2017-12-27T07:27:08.068Z,6.10
2017-12-27T07:29:35.908Z,7.47
2017-12-27T07:32:03.737Z,6.68
2017-12-27T07:34:31.571Z,6.35
2017-12-27T07:36:59.415Z,8.75
2017-12-27T07:39:27.255Z,7.50
2017-12-27T07:41:55.101Z,7.37
2017-12-27T07:44:22.940Z,8.85
2017-12-27T07:46:50.776Z,4.80
2017-12-27T07:49:18.632Z,13.02
2017-12-27T07:51:46.480Z,9.98
2017-12-27T07:54:14.319Z,10.70
2017-12-27T07:56:42.134Z,12.07
2017-12-27T07:59:09.960Z,11.40
2017-12-27T08:01:37.805Z,12.05
2017-12-27T08:04:05.639Z,9.35
2017-12-27T08:06:33.487Z,7.07
2017-12-27T08:09:01.320Z,12.37
2017-12-27T08:11:29.157Z,10.20
2017-12-27T08:13:56.996Z,9.57
2017-12-27T08:16:24.804Z,18.85
2017-12-27T08:18:52.623Z,11.52
2017-12-27T08:21:20.461Z,9.88
2017-12-27T08:23:48.280Z,16.50
2017-12-27T08:26:16.119Z,13.05
2017-12-27T08:28:43.972Z,14.57
2017-12-27T08:31:11.803Z,8.68
2017-12-27T08:33:39.635Z,11.63
2017-12-27T08:36:07.468Z,4.22
2017-12-27T08:38:35.302Z,8.60
2017-12-27T08:41:03.142Z,11.10
2017-12-27T08:43:30.972Z,12.85
2017-12-27T08:45:58.872Z,8.43
2017-12-27T08:48:26.707Z,8.20
2017-12-27T08:50:54.559Z,6.90
2017-12-27T08:53:22.392Z,6.90
2017-12-27T08:55:50.243Z,4.07
2017-12-27T08:58:18.098Z,17.60
2017-12-27T09:00:45.968Z,14.55
2017-12-27T09:03:13.832Z,7.37
2017-12-27T09:05:41.667Z,9.38
2017-12-27T09:08:09.504Z,14.70
2017-12-27T09:10:37.348Z,6.90
2017-12-27T09:13:05.195Z,8.15
2017-12-27T09:15:33.063Z,11.55
2017-12-27T09:18:00.946Z,5.95
2017-12-27T09:20:28.800Z,13.38
2017-12-27T09:22:56.668Z,6.70
2017-12-27T09:25:24.581Z,13.98
2017-12-27T09:27:53.470Z,4.00
2017-12-27T09:30:25.295Z,6.10
2017-12-27T09:32:53.260Z,10.90
2017-12-27T09:35:21.107Z,8.00
2017-12-27T09:37:48.989Z,6.90
2017-12-27T09:40:16.839Z,7.82
2017-12-27T09:42:44.709Z,5.45
2017-12-27T09:45:12.571Z,10.20
2017-12-27T09:47:40.410Z,6.62
2017-12-27T09:50:08.241Z,4.85
2017-12-27T09:52:36.080Z,10.80
2017-12-27T09:55:03.967Z,6.32
2017-12-27T09:57:31.839Z,8.48
2017-12-27T09:59:59.694Z,14.27
2017-12-27T10:02:27.527Z,8.73
2017-12-27T10:04:55.374Z,6.45
2017-12-27T10:07:23.239Z,10.77
2017-12-27T10:09:51.236Z,8.55
2017-12-27T10:12:19.177Z,11.12
2017-12-27T10:14:47.049Z,14.70
2017-12-27T10:17:14.910Z,10.40
2017-12-27T10:19:42.792Z,13.50
2017-12-27T10:22:10.704Z,8.82
2017-12-27T10:24:38.540Z,9.13
2017-12-27T10:27:06.434Z,11.70
2017-12-27T10:29:34.312Z,6.28
2017-12-27T10:32:02.165Z,6.20
2017-12-27T10:34:30.060Z,9.35
2017-12-27T10:36:57.929Z,9.15
2017-12-27T10:39:25.825Z,9.82
2017-12-27T10:41:53.710Z,6.45
2017-12-27T10:44:21.620Z,7.32
2017-12-27T10:46:49.505Z,5.97
2017-12-27T10:49:17.354Z,9.70
2017-12-27T10:51:45.197Z,4.65
2017-12-27T10:54:13.029Z,10.55
2017-12-27T10:56:40.859Z,6.62
2017-12-27T10:59:08.702Z,6.47
2017-12-27T11:01:36.564Z,11.90
2017-12-27T11:04:04.410Z,5.00
2017-12-27T11:06:32.267Z,8.25
2017-12-27T11:09:00.092Z,8.90
2017-12-27T11:11:27.950Z,6.50
2017-12-27T11:13:55.824Z,5.00
2017-12-27T11:16:23.672Z,5.95
2017-12-27T11:18:51.524Z,6.90
2017-12-27T11:21:19.365Z,10.73
2017-12-27T11:23:47.236Z,9.13
2017-12-27T11:26:15.073Z,5.00
2017-12-27T11:28:42.901Z,6.10
2017-12-27T11:31:10.753Z,8.17
2017-12-27T11:33:38.611Z,9.20
2017-12-27T11:36:06.480Z,10.20
2017-12-27T11:38:34.348Z,5.50
2017-12-27T11:41:02.216Z,6.73
2017-12-27T11:43:30.077Z,9.07
2017-12-27T11:45:57.926Z,5.90
2017-12-27T11:48:25.813Z,13.20
2017-12-27T11:50:53.657Z,6.67
2017-12-27T11:53:21.501Z,4.87
2017-12-27T11:55:49.350Z,9.40
2017-12-27T11:58:17.195Z,6.57
2017-12-27T12:00:45.040Z,4.60
2017-12-27T12:03:12.879Z,7.27
2017-12-27T12:05:40.724Z,9.87
2017-12-27T12:08:08.556Z,9.60
2017-12-27T12:10:36.394Z,6.60
2017-12-27T12:13:04.231Z,13.03
2017-12-27T12:15:32.504Z,5.40
2017-12-27T12:18:00.754Z,5.72
2017-12-27T12:20:28.762Z,6.85
2017-12-27T12:22:56.591Z,9.48
2017-12-27T12:25:24.430Z,6.30
2017-12-27T12:27:59.344Z,4.10
2017-12-27T12:30:27.230Z,7.10
2017-12-27T12:32:55.084Z,4.83
2017-12-27T12:35:22.949Z,9.40
2017-12-27T12:37:50.817Z,5.53
2017-12-27T12:40:18.701Z,6.70
2017-12-27T12:42:46.568Z,8.70
2017-12-27T12:45:14.453Z,6.00
2017-12-27T12:47:42.316Z,4.67
2017-12-27T12:50:10.191Z,3.97
2017-12-27T12:52:38.060Z,7.23
2017-12-27T12:55:05.909Z,4.23
2017-12-27T12:57:33.759Z,6.50
2017-12-27T13:00:01.604Z,5.33
2017-12-27T13:02:30.437Z,6.47
2017-12-27T13:04:58.318Z,4.13
2017-12-27T13:07:26.185Z,3.80
2017-12-27T13:09:54.108Z,4.93
2017-12-27T13:12:22.752Z,6.53
2017-12-27T13:14:50.721Z,11.30
2017-12-27T13:17:18.583Z,6.77
2017-12-27T13:19:47.461Z,4.20
2017-12-27T13:22:15.325Z,5.20
2017-12-27T13:24:43.184Z,3.20
2017-12-27T13:27:11.045Z,3.77
2017-12-27T13:29:38.984Z,4.83
2017-12-27T13:32:06.829Z,5.53
2017-12-27T13:34:34.693Z,7.50
2017-12-27T13:37:02.561Z,4.37
2017-12-27T13:39:30.422Z,3.83
2017-12-27T13:41:58.291Z,3.93
2017-12-27T13:44:26.156Z,8.70
2017-12-27T13:46:54.226Z,8.87
2017-12-27T13:49:22.072Z,7.00
2017-12-27T13:51:49.972Z,4.07
2017-12-27T13:54:17.829Z,6.60
2017-12-27T13:56:45.713Z,7.53
2017-12-27T13:59:13.559Z,8.00
2017-12-27T14:01:43.424Z,5.07
2017-12-27T14:04:11.313Z,3.70
2017-12-27T14:06:39.163Z,6.93
2017-12-27T14:09:07.066Z,5.43
2017-12-27T14:11:34.938Z,4.37
2017-12-27T14:14:03.778Z,3.30
2017-12-27T14:16:31.638Z,4.70
2017-12-27T14:18:59.551Z,16.97
2017-12-27T14:21:27.438Z,8.43
2017-12-27T14:23:55.330Z,4.73
2017-12-27T14:26:23.193Z,16.97
2017-12-27T14:28:51.275Z,4.27
2017-12-27T14:31:19.132Z,5.63
2017-12-27T14:33:47.016Z,9.60
2017-12-27T14:36:14.863Z,4.20
2017-12-27T14:38:42.688Z,6.23
2017-12-27T14:41:10.553Z,8.23
2017-12-27T14:43:38.867Z,4.50
2017-12-27T14:46:07.384Z,3.87
2017-12-27T14:48:35.211Z,5.93
2017-12-27T14:51:03.077Z,3.53
2017-12-27T14:53:30.924Z,4.73
2017-12-27T14:55:58.770Z,4.70
2017-12-27T14:58:26.624Z,18.93
2017-12-27T15:00:54.470Z,4.27
2017-12-27T15:03:22.369Z,3.70
2017-12-27T15:05:50.234Z,3.60
2017-12-27T15:08:18.063Z,8.83
2017-12-27T15:10:45.928Z,4.83
2017-12-27T15:13:13.749Z,9.70
2017-12-27T15:15:41.599Z,4.30
2017-12-27T15:18:09.464Z,9.37
2017-12-27T15:20:37.311Z,13.03
2017-12-27T15:23:05.742Z,7.03
2017-12-27T15:25:33.571Z,6.90
2017-12-27T15:28:01.458Z,9.20
2017-12-27T15:30:29.303Z,6.43
2017-12-27T15:32:57.213Z,6.80
2017-12-27T15:35:25.787Z,11.40
2017-12-27T15:37:53.624Z,11.03
2017-12-27T15:40:21.485Z,5.13
2017-12-27T15:42:49.316Z,7.47
2017-12-27T15:45:17.153Z,7.70
2017-12-27T15:47:48.408Z,6.97
2017-12-27T15:50:16.272Z,3.87
2017-12-27T15:52:44.140Z,6.60
2017-12-27T15:55:12.027Z,14.93
2017-12-27T15:57:39.888Z,8.30
2017-12-27T16:00:07.750Z,7.80
2017-12-27T16:02:35.639Z,6.73
2017-12-27T16:05:03.504Z,6.73
2017-12-27T16:07:31.386Z,9.00
2017-12-27T16:09:59.353Z,9.93
2017-12-27T16:12:27.187Z,8.33
2017-12-27T16:14:55.009Z,10.90
2017-12-27T16:17:22.852Z,9.50
2017-12-27T16:19:50.798Z,9.60
2017-12-27T16:22:18.705Z,6.70
2017-12-27T16:24:46.797Z,8.10
2017-12-27T16:27:14.711Z,6.47
2017-12-27T16:29:42.764Z,7.40
2017-12-27T16:32:18.547Z,5.97
2017-12-27T16:34:48.445Z,10.80
2017-12-27T16:37:16.459Z,16.20
2017-12-27T16:39:45.303Z,10.37
2017-12-27T16:42:13.163Z,7.57
2017-12-27T16:44:41.026Z,10.97
2017-12-27T16:47:08.889Z,10.10
2017-12-27T16:49:40.452Z,14.77
2017-12-27T16:52:08.336Z,10.57
2017-12-27T16:54:36.238Z,10.53
2017-12-27T16:57:05.251Z,9.43
2017-12-27T16:59:33.132Z,9.10
2017-12-27T17:02:01.092Z,12.80
2017-12-27T17:04:29.000Z,9.03
2017-12-27T17:06:56.946Z,12.23
2017-12-27T17:09:24.829Z,11.47
2017-12-27T17:11:52.700Z,10.97
2017-12-27T17:14:26.517Z,20.20
2017-12-27T17:16:54.470Z,10.43
2017-12-27T17:19:22.364Z,15.27
2017-12-27T17:21:50.269Z,30.53
2017-12-27T17:24:18.178Z,23.87
2017-12-27T17:26:46.051Z,17.83
2017-12-27T17:29:13.912Z,13.40
2017-12-27T17:31:41.769Z,7.60
2017-12-27T17:34:09.639Z,10.60
2017-12-27T17:36:37.521Z,10.07
2017-12-27T17:39:05.460Z,12.13
2017-12-27T17:41:33.347Z,14.50
2017-12-27T17:44:01.225Z,11.20
2017-12-27T17:46:29.084Z,13.13
2017-12-27T17:48:57.007Z,10.93
2017-12-27T17:51:24.888Z,9.10
2017-12-27T17:53:52.759Z,11.50
2017-12-27T17:56:20.633Z,7.87
2017-12-27T17:58:48.519Z,8.37
2017-12-27T18:01:16.396Z,11.73
2017-12-27T18:03:44.303Z,13.33
2017-12-27T18:06:12.193Z,10.87
2017-12-27T18:08:40.067Z,14.57
2017-12-27T18:11:07.931Z,13.48
2017-12-27T18:13:35.820Z,14.37
2017-12-27T18:16:03.745Z,13.90
2017-12-27T18:18:31.629Z,13.20
2017-12-27T18:20:59.519Z,19.40
2017-12-27T18:23:27.567Z,11.82
2017-12-27T18:25:55.507Z,15.32
2017-12-27T18:28:23.428Z,13.32
2017-12-27T18:30:51.279Z,15.10
2017-12-27T18:33:19.139Z,13.60
2017-12-27T18:35:47.042Z,11.88
2017-12-27T18:38:14.906Z,12.30
2017-12-27T18:40:42.956Z,13.57
2017-12-27T18:43:10.907Z,12.70
2017-12-27T18:45:38.823Z,12.37
2017-12-27T18:48:06.711Z,12.55
2017-12-27T18:50:34.602Z,12.40
2017-12-27T18:53:02.471Z,15.05
2017-12-27T18:55:30.400Z,13.17
2017-12-27T18:57:58.304Z,13.32
2017-12-27T19:00:26.183Z,12.07
2017-12-27T19:02:54.100Z,12.27
2017-12-27T19:05:22.017Z,15.35
2017-12-27T19:07:49.904Z,15.10
2017-12-27T19:10:18.041Z,12.73
2017-12-27T19:12:45.907Z,13.80
2017-12-27T19:15:13.802Z,22.83
2017-12-27T19:17:41.716Z,15.00
2017-12-27T19:20:09.601Z,12.50
2017-12-27T19:22:37.470Z,13.10
2017-12-27T19:25:05.438Z,12.63
2017-12-27T19:27:33.325Z,12.30
2017-12-27T19:30:01.178Z,14.23
2017-12-27T19:32:29.046Z,13.37
2017-12-27T19:34:56.909Z,10.27
2017-12-27T19:37:24.763Z,15.47
2017-12-27T19:39:52.619Z,12.20
2017-12-27T19:42:20.452Z,13.23
2017-12-27T19:44:48.308Z,10.77
2017-12-27T19:47:16.238Z,12.75
2017-12-27T19:49:44.103Z,14.17
2017-12-27T19:52:11.972Z,12.55
2017-12-27T19:54:39.849Z,13.87
2017-12-27T19:57:07.704Z,11.63
2017-12-27T19:59:35.583Z,11.53
2017-12-27T20:02:03.464Z,14.40
2017-12-27T20:04:31.371Z,20.00
2017-12-27T20:06:59.273Z,10.87
2017-12-27T20:09:27.142Z,13.20
2017-12-27T20:11:55.012Z,13.20
2017-12-27T20:14:22.877Z,14.10
2017-12-27T20:16:50.732Z,12.50
2017-12-27T20:19:18.604Z,13.07
2017-12-27T20:21:46.465Z,11.83
2017-12-27T20:24:14.340Z,15.13
2017-12-27T20:26:42.207Z,17.65
2017-12-27T20:29:10.073Z,31.03
2017-12-27T20:31:37.932Z,15.90
2017-12-27T20:34:05.792Z,15.60
2017-12-27T20:36:33.701Z,16.10
2017-12-27T20:39:01.531Z,17.53
2017-12-27T20:41:29.404Z,13.55
2017-12-27T20:43:57.269Z,17.73
2017-12-27T20:46:25.172Z,19.30
2017-12-27T20:48:53.028Z,15.23
2017-12-27T20:51:20.900Z,16.15
2017-12-27T20:53:48.808Z,18.20
2017-12-27T20:56:16.670Z,15.40
2017-12-27T20:58:44.573Z,16.75
2017-12-27T21:01:12.420Z,16.53
2017-12-27T21:03:40.255Z,16.95
2017-12-27T21:06:08.129Z,13.40
2017-12-27T21:08:36.015Z,13.98
2017-12-27T21:11:03.980Z,21.50
2017-12-27T21:13:32.713Z,17.27
2017-12-27T21:16:00.658Z,15.00
2017-12-27T21:18:34.857Z,21.60
2017-12-27T21:21:02.915Z,15.20
2017-12-27T21:23:30.871Z,14.50
2017-12-27T21:25:58.745Z,16.45
2017-12-27T21:28:26.663Z,18.27
2017-12-27T21:30:54.574Z,15.63
2017-12-27T21:33:22.472Z,16.37
2017-12-27T21:35:50.442Z,15.13
2017-12-27T21:38:18.303Z,17.12
2017-12-27T21:40:46.144Z,21.13
2017-12-27T21:43:14.029Z,15.10
2017-12-27T21:45:41.898Z,17.60
2017-12-27T21:48:15.794Z,16.83
2017-12-27T21:50:43.766Z,16.75
2017-12-27T21:53:11.736Z,17.52
2017-12-27T21:55:41.498Z,17.80
2017-12-27T21:58:15.450Z,13.43
2017-12-27T22:00:49.281Z,19.95
2017-12-27T22:03:17.148Z,24.55
2017-12-27T22:05:45.016Z,14.87
2017-12-27T22:08:12.996Z,17.17
2017-12-27T22:10:40.845Z,20.83
2017-12-27T22:13:08.729Z,18.25
2017-12-27T22:15:43.586Z,19.05
2017-12-27T22:18:11.492Z,18.90
2017-12-27T22:20:58.379Z,17.40
2017-12-27T22:23:26.248Z,18.67
2017-12-27T22:25:54.110Z,14.98
2017-12-27T22:28:21.998Z,19.60
2017-12-27T22:30:49.892Z,14.70
2017-12-27T22:33:17.894Z,18.25
2017-12-27T22:35:45.911Z,23.98
2017-12-27T22:38:13.773Z,17.17
2017-12-27T22:40:41.649Z,19.10
2017-12-27T22:43:09.685Z,17.27
2017-12-27T22:45:37.637Z,13.35
2017-12-27T22:48:05.588Z,20.75
2017-12-27T22:50:33.495Z,18.67
2017-12-27T22:53:03.411Z,15.60
2017-12-27T22:55:33.442Z,14.87
2017-12-27T22:58:01.467Z,15.18
2017-12-27T23:00:29.365Z,23.27
2017-12-27T23:02:57.196Z,15.75
2017-12-27T23:05:25.113Z,17.50
2017-12-27T23:07:52.952Z,12.20
2017-12-27T23:10:20.834Z,16.87
2017-12-27T23:12:48.686Z,19.80
2017-12-27T23:15:16.580Z,23.00
2017-12-27T23:17:44.453Z,15.63
2017-12-27T23:20:13.116Z,18.90
2017-12-27T23:22:41.076Z,20.23
2017-12-27T23:25:09.034Z,19.52
2017-12-27T23:27:36.907Z,19.25
2017-12-27T23:30:04.771Z,17.50
2017-12-27T23:32:32.640Z,15.77
2017-12-27T23:35:00.503Z,19.35
2017-12-27T23:37:28.447Z,20.10
2017-12-27T23:40:00.465Z,19.33
2017-12-27T23:42:28.325Z,19.08
2017-12-27T23:44:56.225Z,18.90
2017-12-27T23:47:24.112Z,19.80
2017-12-27T23:49:51.979Z,25.87
2017-12-27T23:52:19.883Z,18.53
2017-12-27T23:54:47.751Z,22.83
2017-12-27T23:57:15.585Z,23.90
2017-12-27T23:59:43.417Z,21.10
